Time;durP1;ratioP1;P1;durP2;ratioP2;P2;SDS_P1;SDS_P2;PMS_P1;PMS_P2;Temp;Humidity;BMP_temperature;BMP_pressure;BME280_temperature;BME280_humidity;BME280_pressure;Samples;Min_cycle;Max_cycle;Signal;HPM_P1;HPM_P2
2023/08/19 00:00:40;;;;;;;28.30;25.85;;;;;;;21.24;100.00;101171.88;4976879;28;20093;-70
2023/08/19 00:03:06;;;;;;;29.17;26.42;;;;;;;21.28;100.00;101161.94;4982819;28;20397;-70
2023/08/19 00:05:31;;;;;;;29.23;26.60;;;;;;;21.31;100.00;101164.44;4980951;28;20093;-71
2023/08/19 00:07:57;;;;;;;28.42;25.75;;;;;;;21.28;100.00;101156.63;4962371;28;20379;-70
2023/08/19 00:10:22;;;;;;;27.65;25.30;;;;;;;21.27;100.00;101155.72;4970158;28;20404;-68
2023/08/19 00:12:48;;;;;;;28.65;25.90;;;;;;;21.29;100.00;101150.31;4945706;28;20545;-68
2023/08/19 00:15:13;;;;;;;28.05;25.70;;;;;;;21.26;100.00;101147.81;4960446;28;20382;-68
2023/08/19 00:17:39;;;;;;;28.20;25.63;;;;;;;21.28;100.00;101141.47;4978659;28;20129;-68
2023/08/19 00:20:06;;;;;;;28.33;25.88;;;;;;;21.30;100.00;101141.38;4961811;28;20401;-68
2023/08/19 00:22:31;;;;;;;29.38;26.77;;;;;;;21.31;100.00;101147.59;4950207;28;20037;-68
2023/08/19 00:24:57;;;;;;;28.27;25.67;;;;;;;21.30;100.00;101146.72;4966310;28;20094;-68
2023/08/19 00:27:22;;;;;;;27.63;25.33;;;;;;;21.28;100.00;101137.97;4978614;28;20037;-68
2023/08/19 00:29:48;;;;;;;29.02;26.33;;;;;;;21.27;100.00;101147.75;4953674;28;20041;-68
2023/08/19 00:32:13;;;;;;;29.98;27.42;;;;;;;21.23;100.00;101148.88;4956390;28;20040;-68
2023/08/19 00:34:39;;;;;;;29.58;27.05;;;;;;;21.26;100.00;101147.81;4968628;28;20023;-70
2023/08/19 00:37:07;;;;;;;30.00;27.25;;;;;;;21.29;100.00;101152.97;4971949;28;20069;-70
2023/08/19 00:39:32;;;;;;;30.73;27.85;;;;;;;21.13;100.00;101147.59;4982369;28;20030;-70
2023/08/19 00:41:58;;;;;;;31.60;28.67;;;;;;;21.10;100.00;101147.75;4968026;28;20049;-70
2023/08/19 00:44:23;;;;;;;33.25;30.25;;;;;;;21.14;100.00;101151.13;4972974;28;20114;-70
2023/08/19 00:46:50;;;;;;;31.48;28.30;;;;;;;21.09;100.00;101148.72;4967949;28;20040;-70
2023/08/19 00:49:15;;;;;;;31.23;28.55;;;;;;;21.11;100.00;101147.66;4987160;28;20103;-70
2023/08/19 00:51:41;;;;;;;32.55;29.38;;;;;;;21.04;100.00;101151.59;4969442;28;20030;-70
2023/08/19 00:54:07;;;;;;;30.50;27.67;;;;;;;21.09;100.00;101152.22;4965663;28;20030;-73
2023/08/19 00:56:41;;;;;;;31.48;28.77;;;;;;;21.05;100.00;101141.81;4987085;28;20034;-73
2023/08/19 00:59:06;;;;;;;32.55;29.55;;;;;;;21.00;100.00;101142.03;4980462;28;20039;-70
2023/08/19 01:01:32;;;;;;;32.78;29.77;;;;;;;21.03;100.00;101141.88;4979157;28;20035;-70
2023/08/19 01:04:19;;;;;;;32.22;29.30;;;;;;;21.01;100.00;101151.75;4948613;28;20022;-71
2023/08/19 01:07:01;;;;;;;33.85;30.90;;;;;;;20.88;100.00;101148.00;4960312;28;20438;-72
2023/08/19 01:13:15;;;;;;;33.70;30.75;;;;;;;20.88;100.00;101140.00;4975271;28;20106;-72
2023/08/19 01:15:55;;;;;;;33.42;30.55;;;;;;;20.88;100.00;101134.66;4978132;28;20031;-72
2023/08/19 01:18:23;;;;;;;34.42;31.45;;;;;;;20.91;100.00;101140.69;4975473;28;20469;-72
2023/08/19 01:20:50;;;;;;;32.85;29.95;;;;;;;20.85;100.00;101134.81;4981616;28;20121;-72
2023/08/19 01:23:32;;;;;;;33.78;30.63;;;;;;;20.91;100.00;101139.84;4967162;28;20065;-71
2023/08/19 01:25:59;;;;;;;33.03;30.20;;;;;;;20.94;100.00;101131.69;4979696;28;20039;-71
2023/08/19 01:28:24;;;;;;;34.63;31.73;;;;;;;20.97;100.00;101134.19;4979455;28;20076;-72
2023/08/19 01:30:50;;;;;;;34.53;31.33;;;;;;;20.94;100.00;101129.88;4972894;28;20120;-71
2023/08/19 01:33:16;;;;;;;33.50;30.38;;;;;;;21.01;100.00;101125.09;4977949;28;20446;-71
2023/08/19 01:35:49;;;;;;;33.15;30.20;;;;;;;20.94;100.00;101129.03;4955021;28;20018;-71
2023/08/19 01:38:27;;;;;;;34.80;31.73;;;;;;;20.92;100.00;101114.94;4976184;28;20113;-71
2023/08/19 01:40:53;;;;;;;32.70;29.63;;;;;;;20.97;100.00;101118.22;4989755;28;20034;-71
2023/08/19 01:43:18;;;;;;;33.58;30.52;;;;;;;20.94;100.00;101115.69;4956545;28;20056;-71
2023/08/19 01:45:44;;;;;;;33.92;30.50;;;;;;;20.91;100.00;101108.72;4936283;28;20042;-71
2023/08/19 01:48:09;;;;;;;32.95;30.15;;;;;;;20.90;100.00;101109.69;4960331;28;20182;-71
2023/08/19 01:50:35;;;;;;;33.28;30.38;;;;;;;21.00;100.00;101111.88;4958846;28;20049;-72
2023/08/19 01:53:00;;;;;;;32.95;30.10;;;;;;;20.92;100.00;101099.81;4961464;28;20030;-72
2023/08/19 01:55:26;;;;;;;33.83;30.60;;;;;;;20.91;100.00;101102.53;4951645;28;20418;-72
2023/08/19 01:57:51;;;;;;;33.15;30.15;;;;;;;20.99;100.00;101100.34;4977084;28;20495;-71
2023/08/19 02:00:19;;;;;;;33.47;30.48;;;;;;;21.01;100.00;101097.63;4956858;28;20681;-69
2023/08/19 02:02:47;;;;;;;34.15;31.15;;;;;;;21.01;100.00;101095.81;4960023;28;20041;-69
2023/08/19 02:05:14;;;;;;;32.45;29.60;;;;;;;21.03;100.00;101099.25;4956076;28;20030;-69
2023/08/19 02:07:40;;;;;;;32.50;29.60;;;;;;;21.00;100.00;101104.72;4977659;28;20034;-69
2023/08/19 02:10:08;;;;;;;32.85;29.77;;;;;;;21.03;100.00;101101.03;4975588;28;20033;-72
2023/08/19 02:12:34;;;;;;;30.73;28.00;;;;;;;21.07;100.00;101092.81;4955838;28;20112;-72
2023/08/19 02:14:59;;;;;;;31.80;28.55;;;;;;;21.06;100.00;101092.88;4971854;28;20038;-71
2023/08/19 02:17:24;;;;;;;31.20;28.55;;;;;;;21.03;100.00;101091.28;4957823;28;20498;-72
2023/08/19 02:19:50;;;;;;;32.97;29.52;;;;;;;21.04;100.00;101095.63;4958585;28;20040;-71
2023/08/19 02:22:20;;;;;;;31.10;28.25;;;;;;;21.05;100.00;101093.84;4975883;28;20060;-71
2023/08/19 02:24:46;;;;;;;31.42;28.58;;;;;;;21.06;100.00;101095.56;4958318;28;20371;-72
2023/08/19 02:27:11;;;;;;;30.60;27.70;;;;;;;21.06;100.00;101096.44;4945323;28;20065;-72
2023/08/19 02:29:37;;;;;;;30.55;28.08;;;;;;;21.09;100.00;101085.63;4945778;28;20124;-71
2023/08/19 02:32:02;;;;;;;29.40;26.70;;;;;;;21.08;100.00;101081.22;4976384;28;20022;-70
2023/08/19 02:34:28;;;;;;;29.00;26.50;;;;;;;21.09;100.00;101085.63;4971788;28;20228;-69
2023/08/19 02:36:54;;;;;;;28.25;25.55;;;;;;;21.09;100.00;101082.94;4958664;28;20034;-71
2023/08/19 02:39:20;;;;;;;28.48;26.08;;;;;;;21.18;100.00;101084.28;4947538;28;20034;-72
2023/08/19 02:41:45;;;;;;;29.73;27.02;;;;;;;21.16;100.00;101078.16;4969784;28;20049;-69
2023/08/19 02:44:11;;;;;;;29.13;26.65;;;;;;;21.20;100.00;101082.38;4965693;28;20042;-69
2023/08/19 02:46:36;;;;;;;28.55;25.90;;;;;;;21.20;100.00;101074.38;4954118;28;20068;-71
2023/08/19 02:49:02;;;;;;;28.45;25.80;;;;;;;21.28;100.00;101074.84;4957774;28;20034;-72
2023/08/19 02:51:27;;;;;;;27.80;25.40;;;;;;;21.29;100.00;101070.34;4942974;28;20378;-72
2023/08/19 02:53:53;;;;;;;27.45;25.05;;;;;;;21.25;100.00;101068.84;4955778;28;20037;-72
2023/08/19 02:56:18;;;;;;;27.38;24.95;;;;;;;21.28;100.00;101071.31;4957306;28;20038;-72
2023/08/19 02:58:44;;;;;;;26.00;23.50;;;;;;;21.34;100.00;101067.47;4973719;28;20470;-70
2023/08/19 03:01:15;;;;;;;27.45;24.73;;;;;;;21.30;100.00;101072.09;4940879;28;20038;-69
2023/08/19 03:03:41;;;;;;;26.45;23.85;;;;;;;21.36;100.00;101062.91;4958472;28;20045;-70
2023/08/19 03:06:06;;;;;;;25.55;23.17;;;;;;;21.32;100.00;101059.56;4970636;28;20026;-72
2023/08/19 03:08:32;;;;;;;25.38;22.98;;;;;;;21.31;100.00;101068.50;4959014;28;20065;-71
2023/08/19 03:10:57;;;;;;;24.55;22.40;;;;;;;21.32;100.00;101070.22;4957643;28;20041;-71
2023/08/19 03:13:23;;;;;;;25.48;23.00;;;;;;;21.34;100.00;101073.66;4954637;28;20050;-72
2023/08/19 03:15:49;;;;;;;25.30;22.58;;;;;;;21.33;100.00;101071.94;4975315;28;20026;-73
2023/08/19 03:18:14;;;;;;;24.58;22.17;;;;;;;21.31;100.00;101071.16;4970843;28;20030;-72
2023/08/19 03:20:41;;;;;;;25.75;23.25;;;;;;;21.29;100.00;101065.91;4959009;28;20034;-72
2023/08/19 03:23:06;;;;;;;25.48;23.17;;;;;;;21.29;100.00;101073.91;4938590;28;20037;-71
2023/08/19 03:25:32;;;;;;;24.98;22.50;;;;;;;21.26;100.00;101066.09;4980111;28;20035;-71
2023/08/19 03:27:57;;;;;;;23.70;21.50;;;;;;;21.26;100.00;101065.19;4956886;28;20045;-72
2023/08/19 03:30:23;;;;;;;24.63;22.15;;;;;;;21.25;100.00;101068.84;4951078;28;20478;-71
2023/08/19 03:32:49;;;;;;;24.42;22.02;;;;;;;21.27;100.00;101069.59;4953935;28;20034;-71
2023/08/19 03:35:14;;;;;;;22.90;20.80;;;;;;;21.25;100.00;101069.69;4960651;28;20109;-71
2023/08/19 03:37:40;;;;;;;23.50;21.27;;;;;;;21.23;100.00;101065.38;4939140;28;20049;-71
2023/08/19 03:40:06;;;;;;;21.02;19.13;;;;;;;21.24;100.00;101061.78;4960153;28;20041;-72
2023/08/19 03:42:31;;;;;;;21.77;19.88;;;;;;;21.24;100.00;101053.78;4960677;28;20038;-71
2023/08/19 03:44:56;;;;;;;23.23;19.63;;;;;;;21.22;100.00;101055.63;4941408;28;20042;-72
2023/08/19 03:47:22;;;;;;;21.48;19.52;;;;;;;21.24;100.00;101061.78;4944455;28;20038;-71
2023/08/19 03:49:48;;;;;;;22.15;19.83;;;;;;;21.24;100.00;101059.09;4971272;28;20042;-72
2023/08/19 03:52:13;;;;;;;20.77;18.88;;;;;;;21.26;100.00;101065.19;4958394;28;20041;-71
2023/08/19 03:54:39;;;;;;;20.70;18.90;;;;;;;21.26;100.00;101076.75;4958216;28;20045;-71
2023/08/19 03:57:04;;;;;;;19.23;17.60;;;;;;;21.29;100.00;101071.25;4953975;28;20031;-71
2023/08/19 03:59:30;;;;;;;19.67;17.92;;;;;;;21.27;100.00;101072.25;4955786;28;20031;-71
2023/08/19 04:01:55;;;;;;;18.67;16.80;;;;;;;21.30;100.00;101072.09;4940736;28;20026;-71
2023/08/19 04:04:21;;;;;;;18.55;16.67;;;;;;;21.34;100.00;101071.00;4968726;28;20035;-71
2023/08/19 04:06:46;;;;;;;19.15;17.33;;;;;;;21.32;100.00;101070.22;4958947;28;20030;-69
2023/08/19 04:09:12;;;;;;;18.60;16.73;;;;;;;21.32;100.00;101070.22;4966181;28;20042;-69
2023/08/19 04:11:38;;;;;;;18.65;16.80;;;;;;;21.32;100.00;101059.56;4957922;28;20524;-69
2023/08/19 04:14:05;;;;;;;18.13;16.00;;;;;;;21.36;100.00;101060.25;4979965;28;20125;-69
2023/08/19 04:16:32;;;;;;;17.85;16.27;;;;;;;21.36;100.00;101063.75;4971268;28;20031;-69
2023/08/19 04:18:57;;;;;;;18.23;16.35;;;;;;;21.31;100.00;101072.97;4985338;28;20033;-69
2023/08/19 04:21:24;;;;;;;17.48;15.88;;;;;;;21.34;100.00;101064.81;4956392;28;20469;-69
2023/08/19 04:23:52;;;;;;;17.35;15.63;;;;;;;21.35;100.00;101058.50;4983308;28;20054;-70
2023/08/19 04:26:17;;;;;;;16.15;14.70;;;;;;;21.32;100.00;101056.91;4966116;28;20026;-69
2023/08/19 04:28:43;;;;;;;16.85;15.13;;;;;;;21.27;100.00;101062.44;4941398;28;20068;-71
2023/08/19 04:31:10;;;;;;;19.08;15.82;;;;;;;21.29;100.00;101073.91;4954229;28;20680;-71
2023/08/19 04:33:36;;;;;;;18.25;16.38;;;;;;;21.28;100.00;101069.50;4976602;28;20573;-72
2023/08/19 04:36:06;;;;;;;17.17;15.43;;;;;;;21.32;100.00;101083.56;4979150;28;20026;-71
2023/08/19 04:38:31;;;;;;;16.90;15.20;;;;;;;21.28;100.00;101079.31;4967205;28;20030;-71
2023/08/19 04:41:00;;;;;;;17.58;15.07;;;;;;;21.28;100.00;101082.84;4940516;28;20089;-71
2023/08/19 04:43:27;;;;;;;15.23;13.77;;;;;;;21.23;100.00;101081.34;4982820;28;20033;-71
2023/08/19 04:45:56;;;;;;;16.05;14.63;;;;;;;21.23;100.00;101087.56;4985429;28;20484;-71
2023/08/19 04:48:35;;;;;;;16.35;14.40;;;;;;;21.23;100.00;101084.91;4974731;28;20045;-72
2023/08/19 04:51:01;;;;;;;17.53;14.47;;;;;;;21.22;100.00;101090.28;4964860;28;20573;-71
2023/08/19 04:53:26;;;;;;;16.75;15.15;;;;;;;21.17;100.00;101087.88;4975748;28;20292;-71
2023/08/19 04:56:01;;;;;;;16.33;14.63;;;;;;;21.17;100.00;101092.34;4969456;28;20413;-70
2023/08/19 04:58:27;;;;;;;16.10;14.60;;;;;;;21.11;100.00;101083.72;4980175;28;20481;-70
2023/08/19 05:00:52;;;;;;;16.52;14.88;;;;;;;21.13;100.00;101088.97;4964623;28;20022;-69
2023/08/19 05:03:18;;;;;;;16.13;14.43;;;;;;;21.12;100.00;101084.59;4959328;28;20037;-71
2023/08/19 05:05:44;;;;;;;16.17;14.25;;;;;;;21.16;100.00;101090.63;4962140;28;20038;-72
2023/08/19 05:08:10;;;;;;;16.30;14.80;;;;;;;21.15;100.00;101086.22;4969107;28;20018;-71
2023/08/19 05:10:36;;;;;;;15.63;13.98;;;;;;;21.15;100.00;101080.88;4963973;28;20069;-71
2023/08/19 05:13:01;;;;;;;16.15;14.23;;;;;;;21.16;100.00;101075.50;4947811;28;20066;-71
2023/08/19 05:15:27;;;;;;;15.85;14.20;;;;;;;21.24;100.00;101078.59;4962171;28;20039;-72
2023/08/19 05:17:55;;;;;;;16.77;14.25;;;;;;;21.25;100.00;101074.16;4971951;28;20193;-71
2023/08/19 05:20:20;;;;;;;14.95;13.55;;;;;;;21.29;100.00;101081.91;4959634;28;20038;-71
2023/08/19 05:22:49;;;;;;;15.10;13.40;;;;;;;21.33;100.00;101087.06;4979452;28;20063;-71
2023/08/19 05:25:15;;;;;;;16.58;13.65;;;;;;;21.38;100.00;101085.03;4974505;28;20042;-72
2023/08/19 05:27:44;;;;;;;14.82;13.40;;;;;;;21.40;100.00;101099.97;4959698;28;20085;-70
2023/08/19 05:30:11;;;;;;;16.05;13.93;;;;;;;21.42;100.00;101100.78;4974173;28;20034;-71
2023/08/19 05:32:36;;;;;;;14.90;12.27;;;;;;;21.48;100.00;101096.91;4979398;28;20038;-72
2023/08/19 05:35:02;;;;;;;14.25;12.75;;;;;;;21.50;100.00;101083.50;4941541;28;20107;-71
2023/08/19 05:37:28;;;;;;;14.43;12.90;;;;;;;21.51;100.00;101098.56;4946400;28;20152;-71
2023/08/19 05:39:53;;;;;;;14.10;12.73;;;;;;;21.45;100.00;101097.94;4973846;28;20517;-71
2023/08/19 05:42:19;;;;;;;14.43;13.05;;;;;;;21.50;100.00;101099.50;4952267;28;20577;-69
2023/08/19 05:44:44;;;;;;;14.60;13.15;;;;;;;21.52;100.00;101106.50;4956023;28;20069;-69
2023/08/19 05:47:10;;;;;;;14.40;13.00;;;;;;;21.52;100.00;101113.63;4970442;28;20030;-70
2023/08/19 05:49:36;;;;;;;15.63;13.30;;;;;;;21.57;100.00;101109.78;4947066;28;20064;-72
2023/08/19 05:52:02;;;;;;;14.40;12.55;;;;;;;21.57;100.00;101108.94;4995089;28;20035;-72
2023/08/19 05:54:27;;;;;;;14.73;13.23;;;;;;;21.57;100.00;101112.44;4951795;28;20037;-71
2023/08/19 05:56:53;;;;;;;14.00;12.70;;;;;;;21.59;100.00;101105.25;4958821;28;20034;-69
2023/08/19 05:59:18;;;;;;;14.40;12.90;;;;;;;21.65;100.00;101108.50;4964974;28;20165;-69
2023/08/19 06:01:44;;;;;;;14.23;12.70;;;;;;;21.66;100.00;101111.09;4975317;28;20034;-70
2023/08/19 06:04:13;;;;;;;12.77;11.57;;;;;;;21.73;100.00;101112.47;4950599;28;20133;-70
2023/08/19 06:06:42;;;;;;;13.38;11.73;;;;;;;21.76;100.00;101112.31;4971982;28;20044;-70
2023/08/19 06:09:08;;;;;;;12.88;11.38;;;;;;;21.78;100.00;101105.09;4993376;28;20167;-70
2023/08/19 06:11:34;;;;;;;14.80;12.45;;;;;;;21.82;100.00;101103.09;4956452;28;20426;-70
2023/08/19 06:13:59;;;;;;;12.50;11.30;;;;;;;21.83;100.00;101103.97;4946155;28;20042;-69
2023/08/19 06:16:25;;;;;;;13.52;12.13;;;;;;;21.87;100.00;101097.53;4940881;28;20368;-70
2023/08/19 06:18:50;;;;;;;12.75;11.55;;;;;;;21.90;100.00;101103.56;4962075;28;20053;-70
2023/08/19 06:21:17;;;;;;;16.33;11.45;;;;;;;21.91;100.00;101113.28;4961504;28;20034;-70
2023/08/19 06:23:42;;;;;;;12.57;11.38;;;;;;;21.92;100.00;101123.03;4958776;28;20031;-70
2023/08/19 06:26:08;;;;;;;13.02;11.77;;;;;;;21.95;100.00;101119.28;4956259;28;20046;-70
2023/08/19 06:28:34;;;;;;;15.90;11.35;;;;;;;21.94;100.00;101109.59;4944021;28;20034;-69
2023/08/19 06:30:59;;;;;;;12.52;11.32;;;;;;;21.97;100.00;101120.09;4939370;28;20031;-70
2023/08/19 06:33:27;;;;;;;13.20;11.32;;;;;;;22.01;100.00;101126.97;4981984;28;20040;-71
2023/08/19 06:35:56;;;;;;;12.75;11.52;;;;;;;22.00;100.00;101135.94;4973322;28;20034;-71
2023/08/19 06:38:29;;;;;;;13.23;10.73;;;;;;;22.07;98.99;101137.31;4972320;28;20022;-70
2023/08/19 06:41:00;;;;;;;12.25;11.07;;;;;;;22.13;99.48;101139.63;4978498;28;20033;-69
2023/08/19 06:43:26;;;;;;;12.00;10.77;;;;;;;22.19;99.13;101142.91;4972754;28;20022;-70
2023/08/19 06:45:55;;;;;;;11.73;10.63;;;;;;;22.24;99.22;101147.03;4956644;28;20096;-70
2023/08/19 06:48:22;;;;;;;11.98;10.80;;;;;;;22.37;97.45;101149.91;4955800;28;20038;-69
2023/08/19 06:50:49;;;;;;;12.55;9.95;;;;;;;22.49;95.99;101146.53;4986019;28;20105;-70
2023/08/19 06:53:15;;;;;;;14.73;10.43;;;;;;;22.61;95.73;101145.00;4956161;28;20030;-70
2023/08/19 06:55:45;;;;;;;12.15;10.25;;;;;;;22.76;94.27;101153.06;4954597;28;20441;-70
2023/08/19 06:58:26;;;;;;;12.23;10.95;;;;;;;22.95;94.51;101161.72;4977469;28;20523;-70
2023/08/19 07:00:59;;;;;;;11.57;10.45;;;;;;;23.09;94.30;101160.06;4969696;28;20111;-70
2023/08/19 07:03:29;;;;;;;12.95;10.82;;;;;;;23.17;92.00;101156.00;4970482;28;20026;-69
2023/08/19 07:05:56;;;;;;;12.65;9.75;;;;;;;23.26;91.84;101154.59;4981849;28;20022;-70
2023/08/19 07:08:26;;;;;;;13.23;8.80;;;;;;;23.42;88.88;101154.50;4958384;28;20123;-69
2023/08/19 07:10:56;;;;;;;14.27;8.88;;;;;;;23.48;89.34;101166.66;4967345;28;20092;-69
2023/08/19 07:13:21;;;;;;;13.80;9.25;;;;;;;23.72;87.42;101169.63;4970666;28;20046;-70
2023/08/19 07:15:56;;;;;;;12.13;9.00;;;;;;;24.02;87.13;101174.91;4965758;28;20046;-71
2023/08/19 07:18:29;;;;;;;11.10;8.93;;;;;;;24.08;85.75;101165.63;4964976;28;20382;-70
2023/08/19 07:20:56;;;;;;;10.32;7.95;;;;;;;24.03;84.88;101171.28;4963190;28;20023;-70
2023/08/19 07:23:23;;;;;;;11.77;8.63;;;;;;;24.03;85.31;101168.59;4963112;28;20470;-70
2023/08/19 07:25:50;;;;;;;10.10;8.43;;;;;;;24.23;84.45;101179.00;4966186;28;20042;-70
2023/08/19 07:28:17;;;;;;;9.52;8.43;;;;;;;24.34;83.41;101173.81;4977401;28;20062;-70
2023/08/19 07:30:43;;;;;;;9.15;8.07;;;;;;;24.45;82.97;101182.00;4963808;28;20565;-70
2023/08/19 07:33:11;;;;;;;11.82;8.57;;;;;;;24.70;84.59;101175.06;4956294;28;20042;-71
2023/08/19 07:35:38;;;;;;;9.27;8.18;;;;;;;24.96;83.14;101184.03;4969267;28;20110;-69
2023/08/19 07:38:05;;;;;;;9.32;7.97;;;;;;;25.06;81.19;101187.81;4975133;28;20023;-70
2023/08/19 07:40:30;;;;;;;8.88;7.97;;;;;;;25.24;81.75;101190.22;4980111;28;20398;-70
2023/08/19 07:42:56;;;;;;;10.35;8.48;;;;;;;25.36;81.58;101183.19;4979502;28;20026;-70
2023/08/19 07:45:21;;;;;;;9.85;8.23;;;;;;;25.28;80.24;101181.00;4969487;28;20038;-70
2023/08/19 07:47:49;;;;;;;11.40;7.88;;;;;;;25.25;80.58;101184.72;4942764;28;20534;-71
2023/08/19 07:50:14;;;;;;;10.57;7.97;;;;;;;25.28;80.70;101201.59;4940689;28;20451;-70
2023/08/19 07:52:40;;;;;;;12.43;7.90;;;;;;;25.23;81.59;101210.81;4950308;28;20038;-70
2023/08/19 07:55:06;;;;;;;11.00;7.78;;;;;;;25.38;82.19;101218.81;4953790;28;20447;-70
2023/08/19 07:57:34;;;;;;;9.70;7.38;;;;;;;25.35;79.73;101213.66;4945850;28;20034;-70
2023/08/19 07:59:59;;;;;;;12.20;7.75;;;;;;;25.70;81.38;101218.41;4942308;28;20057;-70
2023/08/19 08:02:25;;;;;;;10.55;7.45;;;;;;;26.08;82.04;101213.03;4938008;28;20368;-71
2023/08/19 08:04:50;;;;;;;9.90;7.93;;;;;;;26.08;78.62;101215.72;4957627;28;20023;-70
2023/08/19 08:07:16;;;;;;;8.88;7.80;;;;;;;26.01;78.80;101222.50;4971034;28;20448;-70
2023/08/19 08:09:43;;;;;;;11.35;7.75;;;;;;;26.00;79.99;101225.25;4960914;28;20038;-70
2023/08/19 08:12:09;;;;;;;9.00;7.13;;;;;;;25.90;77.33;101225.06;4969129;28;20109;-70
2023/08/19 08:14:34;;;;;;;9.20;7.38;;;;;;;25.93;78.63;101220.34;4957715;28;20050;-70
2023/08/19 08:17:00;;;;;;;10.52;8.07;;;;;;;25.80;79.73;101210.56;4954954;28;20344;-70
2023/08/19 08:19:26;;;;;;;9.20;7.60;;;;;;;25.70;78.71;101208.53;4939159;29;20031;-69
2023/08/19 08:21:54;;;;;;;11.68;7.05;;;;;;;25.63;80.42;101222.47;4943511;28;20094;-70
2023/08/19 08:24:20;;;;;;;11.35;7.38;;;;;;;25.67;80.00;101210.56;4978010;28;20038;-71
2023/08/19 08:26:46;;;;;;;9.52;7.00;;;;;;;25.62;79.23;101215.41;4945699;28;20039;-70
2023/08/19 08:29:12;;;;;;;11.68;7.15;;;;;;;25.62;80.44;101226.16;4965504;28;20390;-70
2023/08/19 08:31:37;;;;;;;9.70;7.50;;;;;;;25.63;81.40;101215.31;4960035;28;20073;-71
2023/08/19 08:34:03;;;;;;;8.82;7.55;;;;;;;25.55;79.97;101213.13;4947219;28;20125;-70
2023/08/19 08:36:28;;;;;;;9.60;7.32;;;;;;;25.53;80.06;101228.50;4959968;28;20038;-70
2023/08/19 08:38:54;;;;;;;12.75;7.40;;;;;;;25.45;81.58;101236.19;4976313;28;20022;-70
2023/08/19 08:41:20;;;;;;;13.82;8.00;;;;;;;25.42;81.96;101253.38;4947271;28;20027;-70
2023/08/19 08:43:48;;;;;;;11.52;7.43;;;;;;;25.40;82.09;101267.84;4966354;28;20034;-70
2023/08/19 08:46:15;;;;;;;9.73;7.95;;;;;;;25.36;82.10;101267.19;4977880;28;20464;-70
2023/08/19 08:48:42;;;;;;;10.82;6.95;;;;;;;25.27;81.62;101264.25;4960690;28;20034;-71
2023/08/19 08:51:08;;;;;;;9.43;7.47;;;;;;;25.25;82.71;101257.16;4945171;28;20032;-69
2023/08/19 08:53:34;;;;;;;9.48;8.00;;;;;;;25.25;83.56;101261.66;4950964;28;20054;-71
2023/08/19 08:56:01;;;;;;;14.30;8.80;;;;;;;25.25;84.21;101270.56;4996513;28;20053;-71
2023/08/19 08:58:26;;;;;;;8.80;7.90;;;;;;;25.24;84.77;101260.81;4983431;28;20026;-71
2023/08/19 09:00:53;;;;;;;9.77;8.40;;;;;;;25.19;85.13;101268.28;4988575;28;20508;-71
2023/08/19 09:03:24;;;;;;;9.55;8.60;;;;;;;25.11;85.46;101281.34;4956936;28;20034;-71
2023/08/19 09:05:53;;;;;;;11.80;8.68;;;;;;;24.98;86.05;101275.09;4972415;28;20027;-71
2023/08/19 09:08:27;;;;;;;10.63;8.77;;;;;;;25.06;86.94;101295.06;4973900;28;20121;-70
2023/08/19 09:10:52;;;;;;;9.43;8.52;;;;;;;24.99;86.27;101290.22;4985945;28;20030;-71
2023/08/19 09:13:24;;;;;;;9.73;7.75;;;;;;;24.96;86.33;101304.69;4967126;28;20065;-70
2023/08/19 09:15:50;;;;;;;11.05;8.52;;;;;;;25.04;86.49;101299.69;4988291;28;20077;-71
2023/08/19 09:18:17;;;;;;;9.82;8.27;;;;;;;25.02;87.13;101308.78;4973832;28;20034;-71
2023/08/19 09:20:47;;;;;;;11.30;8.25;;;;;;;25.10;87.97;101308.25;4961057;28;20028;-71
2023/08/19 09:23:12;;;;;;;10.33;8.63;;;;;;;25.11;87.21;101305.47;4973943;28;20023;-71
2023/08/19 09:25:39;;;;;;;11.80;9.60;;;;;;;25.13;86.21;101316.09;4958194;28;20398;-71
2023/08/19 09:28:07;;;;;;;10.63;9.10;;;;;;;25.06;87.89;101326.38;4964907;28;20122;-70
2023/08/19 09:30:35;;;;;;;11.52;9.77;;;;;;;25.22;87.12;101312.81;4959983;28;20030;-71
2023/08/19 09:33:02;;;;;;;14.98;9.93;;;;;;;25.28;86.22;101311.56;4940687;28;20416;-71
2023/08/19 09:35:54;;;;;;;11.27;10.05;;;;;;;25.37;85.85;101314.53;4971060;28;20489;-71
2023/08/19 09:38:20;;;;;;;11.98;10.23;;;;;;;25.42;86.36;101316.91;4984852;28;20097;-71
2023/08/19 09:40:57;;;;;;;12.30;10.73;;;;;;;25.48;87.21;101327.22;4975105;28;20031;-71
2023/08/19 09:43:23;;;;;;;12.82;10.88;;;;;;;25.44;85.66;101323.00;4986224;28;20033;-71
2023/08/19 09:45:48;;;;;;;12.77;11.40;;;;;;;25.48;86.81;101327.22;4937116;29;20031;-70
2023/08/19 09:48:14;;;;;;;11.90;10.65;;;;;;;25.53;86.61;101330.44;4958556;28;20042;-71
2023/08/19 09:50:45;;;;;;;15.25;12.40;;;;;;;25.58;85.41;101347.09;4954096;28;20391;-70
2023/08/19 09:53:16;;;;;;;13.35;12.02;;;;;;;25.68;85.31;101339.28;4971623;28;20089;-71
2023/08/19 09:55:45;;;;;;;14.02;12.23;;;;;;;25.87;85.28;101340.72;4983841;28;20095;-71
2023/08/19 09:58:11;;;;;;;16.48;12.60;;;;;;;26.05;85.27;101341.31;4967556;28;20062;-71
2023/08/19 10:00:36;;;;;;;14.80;12.68;;;;;;;26.02;82.90;101346.88;4978003;28;20062;-70
2023/08/19 10:03:02;;;;;;;14.43;12.95;;;;;;;26.01;82.95;101353.22;4956298;28;20082;-70
2023/08/19 10:05:31;;;;;;;14.20;12.82;;;;;;;26.02;83.14;101362.97;4956287;28;20105;-71
2023/08/19 10:08:03;;;;;;;15.32;13.02;;;;;;;26.13;84.24;101375.69;4956544;28;20038;-70
2023/08/19 10:10:36;;;;;;;15.23;13.77;;;;;;;26.20;84.32;101379.66;4985484;28;20026;-71
2023/08/19 10:13:03;;;;;;;14.75;13.23;;;;;;;26.30;83.49;101387.94;4963682;28;20034;-71
2023/08/19 10:15:32;;;;;;;15.52;13.70;;;;;;;26.43;83.47;101383.41;4975399;28;20455;-71
2023/08/19 10:18:00;;;;;;;15.50;13.95;;;;;;;26.43;82.18;101396.84;4979154;28;20080;-71
2023/08/19 10:20:28;;;;;;;15.02;13.52;;;;;;;26.52;81.04;101393.53;4993088;28;20179;-71
2023/08/19 10:22:59;;;;;;;15.38;13.77;;;;;;;26.36;80.67;101392.88;4984351;28;20120;-71
2023/08/19 10:25:24;;;;;;;;;;;;;;;26.54;81.95;101391.59;4978493;28;20124;-71
2023/08/19 10:27:50;;;;;;;14.30;13.00;;;;;;;26.48;81.85;101389.34;4976028;28;19968;-71
2023/08/19 10:30:33;;;;;;;15.32;13.85;;;;;;;26.54;82.03;101391.59;4958262;28;20026;-70
2023/08/19 10:33:30;;;;;;;15.15;13.65;;;;;;;26.59;81.75;101396.63;4943509;28;20030;-70
2023/08/19 10:35:57;;;;;;;14.38;12.88;;;;;;;26.47;80.90;101406.41;4966078;28;20019;-70
2023/08/19 10:38:23;;;;;;;14.90;13.32;;;;;;;26.53;81.11;101402.44;4943612;28;20394;-71
2023/08/19 10:41:00;;;;;;;15.35;12.32;;;;;;;26.55;80.80;101406.75;4976123;28;20030;-70
2023/08/19 10:43:26;;;;;;;14.95;13.00;;;;;;;26.54;81.24;101410.41;4986684;28;20024;-71
2023/08/19 10:45:57;;;;;;;14.20;12.80;;;;;;;26.56;79.93;101410.28;4971094;28;20117;-71
2023/08/19 10:48:32;;;;;;;14.88;13.38;;;;;;;26.60;79.98;101412.66;4992953;28;20033;-72
2023/08/19 10:50:57;;;;;;;16.33;14.65;;;;;;;26.52;80.98;101419.53;4971296;28;20030;-71
2023/08/19 10:53:24;;;;;;;16.42;14.82;;;;;;;26.47;79.72;101421.69;4958746;28;20105;-70
2023/08/19 10:55:55;;;;;;;15.73;14.20;;;;;;;26.47;82.51;101437.81;4985303;28;20501;-71
2023/08/19 10:58:22;;;;;;;16.27;14.68;;;;;;;26.39;81.86;101441.03;4953297;28;20038;-70
2023/08/19 11:00:49;;;;;;;15.93;14.25;;;;;;;26.28;81.06;101439.94;4980062;28;20034;-71
2023/08/19 11:03:17;;;;;;;13.77;12.48;;;;;;;26.17;80.37;101453.25;4962470;28;20057;-71
2023/08/19 11:05:50;;;;;;;14.35;12.63;;;;;;;26.09;81.53;101455.63;4986792;28;20057;-70
2023/08/19 11:08:16;;;;;;;13.82;12.15;;;;;;;25.98;80.68;101448.25;4956311;28;20451;-71
2023/08/19 11:10:47;;;;;;;13.18;11.88;;;;;;;25.95;81.84;101464.56;4972955;28;20093;-71